createdAt,value
2023-05-02T00:01:16.900Z,97.70
2023-05-02T00:03:44.111Z,97.80
2023-05-02T00:06:12.101Z,97.80
2023-05-02T00:08:38.945Z,97.90
2023-05-02T00:11:05.868Z,98.00
2023-05-02T00:13:32.675Z,98.00
2023-05-02T00:15:59.386Z,98.00
2023-05-02T00:18:26.189Z,98.10
2023-05-02T00:20:52.935Z,98.20
2023-05-02T00:23:19.634Z,98.20
2023-05-02T00:25:46.689Z,98.40
2023-05-02T00:28:13.938Z,98.40
2023-05-02T00:30:46.971Z,98.50
2023-05-02T00:33:15.083Z,98.60
2023-05-02T00:35:42.177Z,98.60
2023-05-02T00:38:09.002Z,98.60
2023-05-02T00:40:51.096Z,98.60
2023-05-02T00:43:18.997Z,98.60
2023-05-02T00:45:46.826Z,98.90
2023-05-02T00:48:13.854Z,99.00
2023-05-02T00:50:43.320Z,99.00
2023-05-02T00:53:11.101Z,99.10
2023-05-02T00:55:38.597Z,99.10
2023-05-02T00:58:10.475Z,99.20
2023-05-02T01:00:55.674Z,99.20
2023-05-02T01:03:44.652Z,99.40
2023-05-02T01:06:20.768Z,99.60
2023-05-02T01:08:55.811Z,99.60
2023-05-02T01:11:34.555Z,99.60
2023-05-02T01:14:04.588Z,99.70
2023-05-02T01:16:32.573Z,99.80
2023-05-02T01:19:01.824Z,99.90
2023-05-02T01:21:28.992Z,99.90
2023-05-02T01:24:06.858Z,99.90
2023-05-02T01:26:50.575Z,99.90
2023-05-02T01:29:18.357Z,99.90
2023-05-02T01:31:49.538Z,99.90
2023-05-02T01:34:20.092Z,99.90
2023-05-02T01:36:49.271Z,99.90
2023-05-02T01:39:24.906Z,99.90
2023-05-02T01:41:56.659Z,99.90
2023-05-02T01:44:24.566Z,99.90
2023-05-02T01:46:55.025Z,99.90
2023-05-02T01:49:24.375Z,99.90
2023-05-02T01:51:52.362Z,99.90
2023-05-02T01:54:22.962Z,99.90
2023-05-02T01:56:50.612Z,99.90
2023-05-02T01:59:23.895Z,99.90
2023-05-02T02:01:52.162Z,99.90
2023-05-02T02:04:20.919Z,99.90
2023-05-02T02:06:54.209Z,99.90
2023-05-02T02:09:21.746Z,99.90
2023-05-02T02:11:57.622Z,99.90
2023-05-02T02:14:33.596Z,99.90
2023-05-02T02:17:02.569Z,99.90
2023-05-02T02:19:30.805Z,99.90
2023-05-02T02:21:59.032Z,99.90
2023-05-02T02:24:27.604Z,99.90
2023-05-02T02:26:54.512Z,99.90
2023-05-02T02:29:21.360Z,99.90
2023-05-02T02:31:48.141Z,99.90
2023-05-02T02:34:15.054Z,99.90
2023-05-02T02:36:52.272Z,99.90
2023-05-02T02:39:55.809Z,99.90
2023-05-02T02:42:40.980Z,99.90
2023-05-02T02:45:20.074Z,99.90
2023-05-02T02:48:02.994Z,99.90
2023-05-02T02:50:56.550Z,99.90
2023-05-02T02:53:33.184Z,99.90
2023-05-02T02:56:10.948Z,99.90
2023-05-02T02:59:06.868Z,99.90
2023-05-02T03:01:36.421Z,99.90
2023-05-02T03:04:05.681Z,99.90
2023-05-02T03:06:32.956Z,99.90
2023-05-02T03:09:00.095Z,99.90
2023-05-02T03:11:28.328Z,99.90
2023-05-02T03:13:56.517Z,99.90
2023-05-02T03:16:32.588Z,99.90
2023-05-02T03:18:59.827Z,99.90
2023-05-02T03:21:26.910Z,99.90
2023-05-02T03:23:53.725Z,99.90
2023-05-02T03:26:21.174Z,99.90
2023-05-02T03:28:48.935Z,99.90
2023-05-02T03:31:15.925Z,99.90
2023-05-02T03:33:42.898Z,99.90
2023-05-02T03:36:09.798Z,99.90
2023-05-02T03:38:36.619Z,99.90
2023-05-02T03:41:04.082Z,99.90
2023-05-02T03:43:31.365Z,99.90
2023-05-02T03:46:04.286Z,99.90
2023-05-02T03:48:31.481Z,99.90
2023-05-02T03:50:58.479Z,99.90
2023-05-02T03:53:25.370Z,99.90
2023-05-02T03:55:52.510Z,99.90
2023-05-02T03:58:19.303Z,99.90
2023-05-02T04:00:46.292Z,99.90
2023-05-02T04:03:13.301Z,99.90
2023-05-02T04:05:40.123Z,99.90
2023-05-02T04:08:08.046Z,99.90
2023-05-02T04:10:34.722Z,99.90
2023-05-02T04:13:03.108Z,99.90
2023-05-02T04:15:31.304Z,99.90
2023-05-02T04:17:59.002Z,99.90
2023-05-02T04:20:26.269Z,99.90
2023-05-02T04:22:53.169Z,99.90
2023-05-02T04:25:20.035Z,99.90
2023-05-02T04:27:47.297Z,99.90
2023-05-02T04:30:14.550Z,99.90
2023-05-02T04:32:41.494Z,99.90
2023-05-02T04:35:09.912Z,99.90
2023-05-02T04:37:36.701Z,99.90
2023-05-02T04:40:04.442Z,99.90
2023-05-02T04:42:31.303Z,99.90
2023-05-02T04:44:58.156Z,99.90
2023-05-02T04:47:25.084Z,99.90
2023-05-02T04:49:52.125Z,99.90
2023-05-02T04:52:19.273Z,99.90
2023-05-02T04:54:46.142Z,99.90
2023-05-02T04:57:12.958Z,99.90
2023-05-02T04:59:39.846Z,99.90
2023-05-02T05:02:08.291Z,99.90
2023-05-02T05:04:35.351Z,99.90
2023-05-02T05:07:02.257Z,99.90
2023-05-02T05:09:29.061Z,99.90
2023-05-02T05:11:55.800Z,99.90
2023-05-02T05:14:22.731Z,99.90
2023-05-02T05:16:49.618Z,99.90
2023-05-02T05:19:17.532Z,99.90
2023-05-02T05:21:44.416Z,99.90
2023-05-02T05:24:11.269Z,99.90
2023-05-02T05:26:38.061Z,99.90
2023-05-02T05:29:05.828Z,99.90
2023-05-02T05:31:33.382Z,99.90
2023-05-02T05:34:01.533Z,99.90
2023-05-02T05:36:28.367Z,99.90
2023-05-02T05:38:55.445Z,99.90
2023-05-02T05:41:23.136Z,99.90
2023-05-02T05:43:50.890Z,99.90
2023-05-02T05:46:17.880Z,99.90
2023-05-02T05:48:44.923Z,99.90
2023-05-02T05:51:11.794Z,99.90
2023-05-02T05:53:38.608Z,99.90
2023-05-02T05:56:13.418Z,99.90
2023-05-02T05:58:42.718Z,99.90
2023-05-02T06:01:09.645Z,99.90
2023-05-02T06:03:36.510Z,99.90
2023-05-02T06:06:04.403Z,99.90
2023-05-02T06:08:31.342Z,99.90
2023-05-02T06:10:58.074Z,99.90
2023-05-02T06:13:24.816Z,99.90
2023-05-02T06:15:51.701Z,99.90
2023-05-02T06:18:18.574Z,99.90
2023-05-02T06:20:45.333Z,99.90
2023-05-02T06:23:12.170Z,99.90
2023-05-02T06:25:39.123Z,99.90
2023-05-02T06:28:06.260Z,99.90
2023-05-02T06:30:33.102Z,99.90
2023-05-02T06:33:00.031Z,99.90
2023-05-02T06:35:27.191Z,99.90
2023-05-02T06:37:54.155Z,99.90
2023-05-02T06:40:20.993Z,99.90
2023-05-02T06:42:47.992Z,99.90
2023-05-02T06:45:16.057Z,99.90
2023-05-02T06:47:43.123Z,99.90
2023-05-02T06:50:11.532Z,99.90
2023-05-02T06:52:38.392Z,99.90
2023-05-02T06:55:05.621Z,99.90
2023-05-02T06:57:34.593Z,99.90
2023-05-02T07:00:01.712Z,99.90
2023-05-02T07:02:28.916Z,99.90
2023-05-02T07:04:55.714Z,99.90
2023-05-02T07:07:22.535Z,99.90
2023-05-02T07:09:49.456Z,99.90
2023-05-02T07:12:16.354Z,99.90
2023-05-02T07:14:43.317Z,99.90
2023-05-02T07:17:10.519Z,99.90
2023-05-02T07:19:37.523Z,99.90
2023-05-02T07:22:04.558Z,99.90
2023-05-02T07:24:31.533Z,99.70
2023-05-02T07:26:58.371Z,99.70
2023-05-02T07:29:25.270Z,99.90
2023-05-02T07:31:52.022Z,99.90
2023-05-02T07:34:18.858Z,99.90
2023-05-02T07:36:46.666Z,99.80
2023-05-02T07:39:13.686Z,99.60
2023-05-02T07:41:40.602Z,99.70
2023-05-02T07:44:07.460Z,99.60
2023-05-02T07:46:34.403Z,99.90
2023-05-02T07:49:01.674Z,99.90
2023-05-02T07:51:28.621Z,99.90
2023-05-02T07:53:58.472Z,99.90
2023-05-02T07:56:25.869Z,99.90
2023-05-02T07:58:53.881Z,99.90
2023-05-02T08:01:20.960Z,99.90
2023-05-02T08:03:48.754Z,99.90
2023-05-02T08:06:16.175Z,99.90
2023-05-02T08:08:43.014Z,99.90
2023-05-02T08:11:09.704Z,99.90
2023-05-02T08:13:36.467Z,99.90
2023-05-02T08:16:03.585Z,99.90
2023-05-02T08:18:30.417Z,99.90
2023-05-02T08:21:00.317Z,99.90
2023-05-02T08:23:27.201Z,99.90
2023-05-02T08:25:54.506Z,99.90
2023-05-02T08:28:21.515Z,99.90
2023-05-02T08:30:49.070Z,99.90
2023-05-02T08:33:16.109Z,99.90
2023-05-02T08:35:43.008Z,99.90
2023-05-02T08:38:09.902Z,99.90
2023-05-02T08:40:42.194Z,99.90
2023-05-02T08:43:12.151Z,99.90
2023-05-02T08:45:44.378Z,99.90
2023-05-02T08:48:13.452Z,99.90
2023-05-02T08:50:42.464Z,99.90
2023-05-02T08:53:11.454Z,99.90
2023-05-02T08:55:42.583Z,99.90
2023-05-02T08:58:11.422Z,99.90
2023-05-02T09:00:42.917Z,99.90
2023-05-02T09:03:23.768Z,99.80
2023-05-02T09:05:58.422Z,99.80
2023-05-02T09:08:25.693Z,99.80
2023-05-02T09:10:52.480Z,99.60
2023-05-02T09:13:37.518Z,99.40
2023-05-02T09:16:05.861Z,99.80
2023-05-02T09:18:36.352Z,99.70
2023-05-02T09:21:09.024Z,99.20
2023-05-02T09:23:44.366Z,99.00
2023-05-02T09:26:12.777Z,98.90
2023-05-02T09:28:42.957Z,99.00
2023-05-02T09:31:12.556Z,99.10
2023-05-02T09:33:39.774Z,99.30
2023-05-02T09:36:08.244Z,99.40
2023-05-02T09:38:36.461Z,99.40
2023-05-02T09:41:03.593Z,99.50
2023-05-02T09:43:32.314Z,99.30
2023-05-02T09:46:00.882Z,99.90
2023-05-02T09:48:30.480Z,99.90
2023-05-02T09:50:57.959Z,99.90
2023-05-02T09:53:28.483Z,99.90
2023-05-02T09:56:03.566Z,99.90
2023-05-02T09:58:33.551Z,99.90
2023-05-02T10:01:00.495Z,99.90
2023-05-02T10:03:29.660Z,99.90
2023-05-02T10:05:57.104Z,99.90
2023-05-02T10:08:28.582Z,99.90
2023-05-02T10:10:57.553Z,99.90
2023-05-02T10:13:27.465Z,99.90
2023-05-02T10:16:04.508Z,99.90
2023-05-02T10:18:34.301Z,99.90
2023-05-02T10:21:09.286Z,99.90
2023-05-02T10:23:36.642Z,99.90
2023-05-02T10:26:03.668Z,99.90
2023-05-02T10:28:31.517Z,99.90
2023-05-02T10:31:00.243Z,99.90
2023-05-02T10:33:28.387Z,99.90
2023-05-02T10:35:55.399Z,99.90
2023-05-02T10:38:24.788Z,99.90
2023-05-02T10:41:04.997Z,99.90
2023-05-02T10:43:37.972Z,99.90
2023-05-02T10:46:37.940Z,99.90
2023-05-02T10:49:12.789Z,99.90
2023-05-02T10:51:43.415Z,99.90
2023-05-02T10:54:26.134Z,99.90
2023-05-02T10:57:08.619Z,99.90
2023-05-02T10:59:39.817Z,99.90
2023-05-02T11:02:30.953Z,99.90
2023-05-02T11:05:05.418Z,99.90
2023-05-02T11:07:33.859Z,99.90
2023-05-02T11:10:16.171Z,99.90
2023-05-02T11:12:53.615Z,99.90
2023-05-02T11:15:29.741Z,99.90
2023-05-02T11:18:12.547Z,99.90
2023-05-02T11:20:41.459Z,99.90
2023-05-02T11:23:21.427Z,99.90
2023-05-02T11:26:22.220Z,99.90
2023-05-02T11:28:49.465Z,99.90
2023-05-02T11:31:28.711Z,99.90
2023-05-02T11:33:59.647Z,99.90
2023-05-02T11:36:33.622Z,99.90
2023-05-02T11:39:03.536Z,99.90
2023-05-02T11:41:40.412Z,99.90
2023-05-02T11:44:07.372Z,99.90
2023-05-02T11:46:37.507Z,99.90
2023-05-02T11:49:07.012Z,99.90
2023-05-02T11:51:36.188Z,99.90
2023-05-02T11:54:03.945Z,99.90
2023-05-02T11:56:31.563Z,99.90
2023-05-02T11:59:00.920Z,99.90
2023-05-02T12:01:28.328Z,99.90
2023-05-02T12:04:10.418Z,99.90
2023-05-02T12:06:37.461Z,99.90
2023-05-02T12:09:13.983Z,99.90
2023-05-02T12:11:41.414Z,99.90
2023-05-02T12:14:08.353Z,99.90
2023-05-02T12:16:35.968Z,99.90
2023-05-02T12:19:04.319Z,99.90
2023-05-02T12:21:33.079Z,99.90
2023-05-02T12:24:02.116Z,99.90
2023-05-02T12:26:33.141Z,99.90
2023-05-02T12:29:02.853Z,99.90
2023-05-02T12:31:32.101Z,99.90
2023-05-02T12:34:00.425Z,99.90
2023-05-02T12:36:30.856Z,99.90
2023-05-02T12:39:03.887Z,99.90
2023-05-02T12:41:35.545Z,99.90
2023-05-02T12:44:02.507Z,99.90
2023-05-02T12:46:30.009Z,99.90
2023-05-02T12:49:03.765Z,99.90
2023-05-02T12:51:31.849Z,99.90
2023-05-02T12:53:58.714Z,99.90
2023-05-02T12:56:32.037Z,99.90
2023-05-02T12:59:04.299Z,99.90
2023-05-02T13:01:33.942Z,99.90
2023-05-02T13:04:01.384Z,99.90
2023-05-02T13:06:28.272Z,99.90
2023-05-02T13:08:55.375Z,99.90
2023-05-02T13:11:22.073Z,99.90
2023-05-02T13:13:48.855Z,99.90
2023-05-02T13:16:15.767Z,99.90
2023-05-02T13:18:44.041Z,99.90
2023-05-02T13:21:12.394Z,99.90
2023-05-02T13:23:39.933Z,99.90
2023-05-02T13:26:09.050Z,99.80
2023-05-02T13:28:37.384Z,99.00
2023-05-02T13:31:04.629Z,98.00
2023-05-02T13:33:32.468Z,97.60
2023-05-02T13:35:59.381Z,97.70
2023-05-02T13:38:26.785Z,98.10
2023-05-02T13:40:54.191Z,97.50
2023-05-02T13:43:21.129Z,97.70
2023-05-02T13:45:48.919Z,97.90
2023-05-02T13:48:16.258Z,97.90
2023-05-02T13:50:43.541Z,97.60
2023-05-02T13:53:11.377Z,97.30
2023-05-02T13:55:38.354Z,97.20
2023-05-02T13:58:05.921Z,97.20
2023-05-02T14:00:32.919Z,97.20
2023-05-02T14:02:59.963Z,97.20
2023-05-02T14:05:27.059Z,96.80
2023-05-02T14:07:53.785Z,96.40
2023-05-02T14:10:20.476Z,96.30
2023-05-02T14:12:47.849Z,95.90
2023-05-02T14:15:14.948Z,96.00
2023-05-02T14:17:41.763Z,96.40
2023-05-02T14:20:10.534Z,96.60
2023-05-02T14:22:37.547Z,96.40
2023-05-02T14:25:04.901Z,96.40
2023-05-02T14:27:31.851Z,96.90
2023-05-02T14:29:58.743Z,97.00
2023-05-02T14:32:26.818Z,97.10
2023-05-02T14:34:53.555Z,97.00
2023-05-02T14:37:20.452Z,97.30
2023-05-02T14:39:51.114Z,97.30
2023-05-02T14:42:19.025Z,97.30
2023-05-02T14:44:46.265Z,97.20
2023-05-02T14:47:13.211Z,97.30
2023-05-02T14:49:40.316Z,97.50
2023-05-02T14:52:07.335Z,97.70
2023-05-02T14:54:34.320Z,97.40
2023-05-02T14:57:03.651Z,97.60
2023-05-02T14:59:31.424Z,97.70
2023-05-02T15:01:58.496Z,97.70
2023-05-02T15:04:27.365Z,97.90
2023-05-02T15:06:55.472Z,98.00
2023-05-02T15:09:23.395Z,97.30
2023-05-02T15:11:50.263Z,97.40
2023-05-02T15:14:17.233Z,97.50
2023-05-02T15:16:44.114Z,97.30
2023-05-02T15:19:10.943Z,97.60
2023-05-02T15:21:37.718Z,97.70
2023-05-02T15:24:04.710Z,97.70
2023-05-02T15:26:32.152Z,97.90
2023-05-02T15:28:59.189Z,98.10
2023-05-02T15:31:26.045Z,98.20
2023-05-02T15:33:52.842Z,98.40
2023-05-02T15:36:19.711Z,98.40
2023-05-02T15:38:46.479Z,98.30
2023-05-02T15:41:13.371Z,98.10
2023-05-02T15:43:40.204Z,98.10
2023-05-02T15:46:08.013Z,98.20
2023-05-02T15:48:35.105Z,98.40
2023-05-02T15:51:03.062Z,98.40
2023-05-02T15:53:30.090Z,98.40
2023-05-02T15:55:57.219Z,98.40
2023-05-02T15:58:24.070Z,98.40
2023-05-02T16:00:52.518Z,98.40
2023-05-02T16:03:19.757Z,98.40
2023-05-02T16:05:46.787Z,98.40
2023-05-02T16:08:13.819Z,98.70
2023-05-02T16:10:45.658Z,98.50
2023-05-02T16:13:12.595Z,98.50
2023-05-02T16:15:39.750Z,98.40
2023-05-02T16:18:06.764Z,98.40
2023-05-02T16:20:36.635Z,98.80
2023-05-02T16:23:04.416Z,99.00
2023-05-02T16:25:31.494Z,99.10
2023-05-02T16:28:00.091Z,99.30
2023-05-02T16:30:28.207Z,99.50
2023-05-02T16:32:55.851Z,99.80
2023-05-02T16:35:22.657Z,99.90
2023-05-02T16:37:49.505Z,99.90
2023-05-02T16:40:16.473Z,99.90
2023-05-02T16:42:43.487Z,99.90
2023-05-02T16:45:11.111Z,99.90
2023-05-02T16:47:38.510Z,99.90
2023-05-02T16:50:06.457Z,99.90
2023-05-02T16:52:36.548Z,99.90
2023-05-02T16:55:04.428Z,99.90
2023-05-02T16:57:31.321Z,99.90
2023-05-02T16:59:59.072Z,99.90
2023-05-02T17:02:26.742Z,99.90
2023-05-02T17:04:54.040Z,99.90
2023-05-02T17:07:20.972Z,99.90
2023-05-02T17:09:48.065Z,99.90
2023-05-02T17:12:15.698Z,99.90
2023-05-02T17:14:42.861Z,99.90
2023-05-02T17:17:10.221Z,99.90
2023-05-02T17:19:37.295Z,99.90
2023-05-02T17:22:05.358Z,99.90
2023-05-02T17:24:33.610Z,99.90
2023-05-02T17:27:02.660Z,99.90
2023-05-02T17:29:29.643Z,99.90
2023-05-02T17:32:02.577Z,99.90
2023-05-02T17:34:30.383Z,99.90
2023-05-02T17:36:57.123Z,99.90
2023-05-02T17:39:23.915Z,99.90
2023-05-02T17:41:50.850Z,99.90
2023-05-02T17:44:17.661Z,99.90
2023-05-02T17:46:44.565Z,99.90
2023-05-02T17:49:11.747Z,99.90
2023-05-02T17:51:38.580Z,99.90
2023-05-02T17:54:05.518Z,99.90
2023-05-02T17:56:35.055Z,99.90
2023-05-02T17:59:01.843Z,99.90
2023-05-02T18:01:28.635Z,99.90
2023-05-02T18:03:55.526Z,99.90
2023-05-02T18:06:22.698Z,99.90
2023-05-02T18:08:49.529Z,99.90
2023-05-02T18:11:21.054Z,99.90
2023-05-02T18:13:49.497Z,99.90
2023-05-02T18:16:16.431Z,99.90
2023-05-02T18:18:43.243Z,99.90
2023-05-02T18:21:09.973Z,99.90
2023-05-02T18:23:36.688Z,99.90
2023-05-02T18:26:03.932Z,99.90
2023-05-02T18:28:30.733Z,99.90
2023-05-02T18:30:57.508Z,99.90
2023-05-02T18:33:24.273Z,99.90
2023-05-02T18:35:51.157Z,99.90
2023-05-02T18:38:18.280Z,99.90
2023-05-02T18:40:45.442Z,99.90
2023-05-02T18:43:12.213Z,99.90
2023-05-02T18:45:39.062Z,99.90
2023-05-02T18:48:06.152Z,99.90
2023-05-02T18:50:33.043Z,99.90
2023-05-02T18:52:59.806Z,99.90
2023-05-02T18:55:26.519Z,99.90
2023-05-02T18:57:53.264Z,99.90
2023-05-02T19:00:20.547Z,99.90
2023-05-02T19:02:47.951Z,99.90
2023-05-02T19:05:15.172Z,99.90
2023-05-02T19:07:42.433Z,99.90
2023-05-02T19:10:11.065Z,99.90
2023-05-02T19:12:38.253Z,99.90
2023-05-02T19:15:06.748Z,99.90
2023-05-02T19:17:33.772Z,99.90
2023-05-02T19:20:01.288Z,99.90
2023-05-02T19:22:28.109Z,99.90
2023-05-02T19:24:55.296Z,99.90
2023-05-02T19:27:22.172Z,99.90
2023-05-02T19:29:53.273Z,99.90
2023-05-02T19:32:22.352Z,99.90
2023-05-02T19:34:49.231Z,99.90
2023-05-02T19:37:16.011Z,99.90
2023-05-02T19:39:42.869Z,99.90
2023-05-02T19:42:09.791Z,99.90
2023-05-02T19:44:36.505Z,99.90
2023-05-02T19:47:03.451Z,99.90
2023-05-02T19:49:30.233Z,99.90
2023-05-02T19:51:57.076Z,99.90
2023-05-02T19:54:24.027Z,99.90
2023-05-02T19:56:50.859Z,99.90
2023-05-02T19:59:17.823Z,99.90
2023-05-02T20:01:46.752Z,99.90
2023-05-02T20:04:14.225Z,99.90
2023-05-02T20:06:41.365Z,99.90
2023-05-02T20:09:08.409Z,99.90
2023-05-02T20:11:35.108Z,99.90
2023-05-02T20:14:03.104Z,99.90
2023-05-02T20:16:31.430Z,99.90
2023-05-02T20:18:58.747Z,99.90
2023-05-02T20:21:26.771Z,99.90
2023-05-02T20:23:53.499Z,99.90
2023-05-02T20:26:21.392Z,99.90
2023-05-02T20:28:48.183Z,99.90
2023-05-02T20:31:14.997Z,99.90
2023-05-02T20:33:45.702Z,99.90
2023-05-02T20:36:15.132Z,99.90
2023-05-02T20:38:43.048Z,99.90
2023-05-02T20:41:12.582Z,99.90
2023-05-02T20:43:41.522Z,99.90
2023-05-02T20:46:13.238Z,99.90
2023-05-02T20:48:40.327Z,99.90
2023-05-02T20:51:08.689Z,99.90
2023-05-02T20:53:40.057Z,99.90
2023-05-02T20:56:07.160Z,99.90
2023-05-02T20:58:34.032Z,99.90
2023-05-02T21:01:01.832Z,99.90
2023-05-02T21:03:28.785Z,99.90
2023-05-02T21:05:57.061Z,99.90
2023-05-02T21:08:24.062Z,99.90
2023-05-02T21:10:53.498Z,99.90
2023-05-02T21:13:20.653Z,99.90
2023-05-02T21:15:47.689Z,99.90
2023-05-02T21:18:15.720Z,99.90
2023-05-02T21:20:42.830Z,99.90
2023-05-02T21:23:12.408Z,99.90
2023-05-02T21:25:39.292Z,99.90
2023-05-02T21:28:06.275Z,99.90
2023-05-02T21:30:33.243Z,99.90
2023-05-02T21:33:00.219Z,99.90
2023-05-02T21:35:28.735Z,99.90
2023-05-02T21:37:55.750Z,99.90
2023-05-02T21:40:23.134Z,99.90
2023-05-02T21:42:51.130Z,99.90
2023-05-02T21:45:18.054Z,99.90
2023-05-02T21:47:45.094Z,99.90
2023-05-02T21:50:12.010Z,99.90
2023-05-02T21:52:38.851Z,99.90
2023-05-02T21:55:06.339Z,99.90
2023-05-02T21:57:33.111Z,99.90
2023-05-02T22:00:00.280Z,99.90
2023-05-02T22:02:27.840Z,99.90
2023-05-02T22:04:57.730Z,99.90
2023-05-02T22:07:26.021Z,99.90
2023-05-02T22:09:53.198Z,99.90
2023-05-02T22:12:20.225Z,99.90
2023-05-02T22:14:47.516Z,99.90
2023-05-02T22:17:18.424Z,99.90
2023-05-02T22:19:49.557Z,99.90
2023-05-02T22:22:16.387Z,99.90
2023-05-02T22:24:43.252Z,99.90
2023-05-02T22:27:10.101Z,99.90
2023-05-02T22:29:36.957Z,99.90
2023-05-02T22:32:03.948Z,99.90
2023-05-02T22:34:30.928Z,99.90
2023-05-02T22:36:57.828Z,99.90
2023-05-02T22:39:24.686Z,99.90
2023-05-02T22:41:51.485Z,99.90
2023-05-02T22:44:18.380Z,99.90
2023-05-02T22:46:45.268Z,99.90
2023-05-02T22:49:12.135Z,99.90
2023-05-02T22:51:42.364Z,99.90
2023-05-02T22:54:10.290Z,99.90
2023-05-02T22:56:37.215Z,99.90
2023-05-02T22:59:04.002Z,99.90
2023-05-02T23:01:30.865Z,99.90
2023-05-02T23:03:57.924Z,99.90
2023-05-02T23:06:25.017Z,99.90
2023-05-02T23:08:51.841Z,99.90
2023-05-02T23:11:18.867Z,99.90
2023-05-02T23:13:45.672Z,99.90
2023-05-02T23:16:12.612Z,99.90
2023-05-02T23:18:39.756Z,99.90
2023-05-02T23:21:14.204Z,99.90
2023-05-02T23:23:41.543Z,99.90
2023-05-02T23:26:10.481Z,99.90
2023-05-02T23:28:37.818Z,99.90
2023-05-02T23:31:06.911Z,99.90
2023-05-02T23:33:36.004Z,99.90
2023-05-02T23:36:03.168Z,99.90
2023-05-02T23:38:30.138Z,99.90
2023-05-02T23:40:58.202Z,99.90
2023-05-02T23:43:25.136Z,99.90
2023-05-02T23:45:52.153Z,99.90
2023-05-02T23:48:20.563Z,99.90
2023-05-02T23:50:47.507Z,99.90
2023-05-02T23:53:15.646Z,99.90
2023-05-02T23:55:42.651Z,99.90
2023-05-02T23:58:10.131Z,99.90
